sensor_id;sensor_type;location;lat;lon;timestamp;P1;durP1;ratioP1;P2;durP2;ratioP2
78410;SDS011;67706;51.074;-1.796;2023-05-10T00:01:46;16.02;;;5.28;;
78410;SDS011;67706;51.074;-1.796;2023-05-10T00:04:12;20.30;;;5.00;;
78410;SDS011;67706;51.074;-1.796;2023-05-10T00:06:39;13.93;;;5.97;;
78410;SDS011;67706;51.074;-1.796;2023-05-10T00:09:06;15.55;;;5.90;;
78410;SDS011;67706;51.074;-1.796;2023-05-10T00:11:32;14.57;;;5.35;;
78410;SDS011;67706;51.074;-1.796;2023-05-10T00:13:59;18.45;;;5.95;;
78410;SDS011;67706;51.074;-1.796;2023-05-10T00:16:25;19.60;;;6.03;;
78410;SDS011;67706;51.074;-1.796;2023-05-10T00:18:53;17.80;;;5.40;;
78410;SDS011;67706;51.074;-1.796;2023-05-10T00:21:21;15.60;;;5.97;;
78410;SDS011;67706;51.074;-1.796;2023-05-10T00:23:47;19.15;;;5.90;;
78410;SDS011;67706;51.074;-1.796;2023-05-10T00:26:14;17.67;;;5.40;;
78410;SDS011;67706;51.074;-1.796;2023-05-10T00:28:41;16.48;;;5.70;;
78410;SDS011;67706;51.074;-1.796;2023-05-10T00:31:08;18.42;;;5.97;;
78410;SDS011;67706;51.074;-1.796;2023-05-10T00:33:35;12.25;;;5.05;;
78410;SDS011;67706;51.074;-1.796;2023-05-10T00:36:03;12.30;;;5.47;;
78410;SDS011;67706;51.074;-1.796;2023-05-10T00:38:32;12.85;;;5.32;;
78410;SDS011;67706;51.074;-1.796;2023-05-10T00:40:59;13.30;;;5.72;;
78410;SDS011;67706;51.074;-1.796;2023-05-10T00:43:26;17.63;;;5.63;;
78410;SDS011;67706;51.074;-1.796;2023-05-10T00:45:53;15.98;;;5.50;;
78410;SDS011;67706;51.074;-1.796;2023-05-10T00:48:20;12.05;;;5.85;;
78410;SDS011;67706;51.074;-1.796;2023-05-10T00:50:47;17.90;;;5.95;;
78410;SDS011;67706;51.074;-1.796;2023-05-10T00:53:16;17.83;;;6.32;;
78410;SDS011;67706;51.074;-1.796;2023-05-10T00:55:43;19.98;;;6.80;;
78410;SDS011;67706;51.074;-1.796;2023-05-10T00:58:09;13.68;;;5.47;;
78410;SDS011;67706;51.074;-1.796;2023-05-10T01:00:36;16.95;;;5.18;;
78410;SDS011;67706;51.074;-1.796;2023-05-10T01:03:05;14.52;;;5.75;;
78410;SDS011;67706;51.074;-1.796;2023-05-10T01:05:32;16.88;;;5.60;;
78410;SDS011;67706;51.074;-1.796;2023-05-10T01:07:58;16.88;;;6.00;;
78410;SDS011;67706;51.074;-1.796;2023-05-10T01:10:26;17.17;;;5.90;;
78410;SDS011;67706;51.074;-1.796;2023-05-10T01:12:53;15.07;;;5.70;;
78410;SDS011;67706;51.074;-1.796;2023-05-10T01:15:21;16.05;;;5.65;;
78410;SDS011;67706;51.074;-1.796;2023-05-10T01:17:48;13.93;;;5.47;;
78410;SDS011;67706;51.074;-1.796;2023-05-10T01:20:15;12.50;;;4.72;;
78410;SDS011;67706;51.074;-1.796;2023-05-10T01:22:46;13.77;;;4.53;;
78410;SDS011;67706;51.074;-1.796;2023-05-10T01:25:34;12.43;;;4.55;;
78410;SDS011;67706;51.074;-1.796;2023-05-10T01:28:17;11.77;;;4.75;;
78410;SDS011;67706;51.074;-1.796;2023-05-10T01:31:14;13.90;;;4.68;;
78410;SDS011;67706;51.074;-1.796;2023-05-10T01:33:50;15.57;;;5.10;;
78410;SDS011;67706;51.074;-1.796;2023-05-10T01:36:23;11.88;;;4.72;;
78410;SDS011;67706;51.074;-1.796;2023-05-10T01:38:54;17.23;;;5.22;;
78410;SDS011;67706;51.074;-1.796;2023-05-10T01:41:28;11.40;;;3.92;;
78410;SDS011;67706;51.074;-1.796;2023-05-10T01:44:01;14.25;;;3.83;;
78410;SDS011;67706;51.074;-1.796;2023-05-10T01:46:35;14.00;;;4.32;;
78410;SDS011;67706;51.074;-1.796;2023-05-10T01:49:07;13.23;;;4.40;;
78410;SDS011;67706;51.074;-1.796;2023-05-10T01:51:36;15.35;;;3.90;;
78410;SDS011;67706;51.074;-1.796;2023-05-10T01:54:08;9.10;;;4.00;;
78410;SDS011;67706;51.074;-1.796;2023-05-10T01:56:37;12.63;;;3.88;;
78410;SDS011;67706;51.074;-1.796;2023-05-10T01:59:08;9.80;;;3.75;;
78410;SDS011;67706;51.074;-1.796;2023-05-10T02:01:39;12.18;;;3.45;;
78410;SDS011;67706;51.074;-1.796;2023-05-10T02:04:08;10.85;;;4.30;;
78410;SDS011;67706;51.074;-1.796;2023-05-10T02:06:38;13.85;;;4.03;;
78410;SDS011;67706;51.074;-1.796;2023-05-10T02:09:07;10.35;;;3.08;;
78410;SDS011;67706;51.074;-1.796;2023-05-10T02:11:35;13.52;;;3.53;;
78410;SDS011;67706;51.074;-1.796;2023-05-10T02:14:05;12.15;;;3.20;;
78410;SDS011;67706;51.074;-1.796;2023-05-10T02:16:33;9.13;;;2.70;;
78410;SDS011;67706;51.074;-1.796;2023-05-10T02:19:02;9.32;;;2.55;;
78410;SDS011;67706;51.074;-1.796;2023-05-10T02:21:31;10.90;;;2.70;;
78410;SDS011;67706;51.074;-1.796;2023-05-10T02:23:59;15.48;;;3.33;;
78410;SDS011;67706;51.074;-1.796;2023-05-10T02:26:29;11.07;;;3.22;;
78410;SDS011;67706;51.074;-1.796;2023-05-10T02:28:56;16.15;;;3.22;;
78410;SDS011;67706;51.074;-1.796;2023-05-10T02:31:24;11.20;;;2.60;;
78410;SDS011;67706;51.074;-1.796;2023-05-10T02:33:52;9.55;;;2.80;;
78410;SDS011;67706;51.074;-1.796;2023-05-10T02:36:20;12.88;;;2.60;;
78410;SDS011;67706;51.074;-1.796;2023-05-10T02:38:50;13.20;;;3.03;;
78410;SDS011;67706;51.074;-1.796;2023-05-10T02:41:18;9.75;;;2.33;;
78410;SDS011;67706;51.074;-1.796;2023-05-10T02:43:46;9.95;;;2.60;;
78410;SDS011;67706;51.074;-1.796;2023-05-10T02:46:16;11.80;;;2.38;;
78410;SDS011;67706;51.074;-1.796;2023-05-10T02:48:42;12.27;;;3.20;;
78410;SDS011;67706;51.074;-1.796;2023-05-10T02:51:09;10.07;;;2.35;;
78410;SDS011;67706;51.074;-1.796;2023-05-10T02:53:40;7.95;;;2.38;;
78410;SDS011;67706;51.074;-1.796;2023-05-10T02:56:11;14.18;;;2.55;;
78410;SDS011;67706;51.074;-1.796;2023-05-10T02:58:42;10.00;;;2.38;;
78410;SDS011;67706;51.074;-1.796;2023-05-10T03:01:09;11.43;;;2.45;;
78410;SDS011;67706;51.074;-1.796;2023-05-10T03:03:35;10.20;;;2.40;;
78410;SDS011;67706;51.074;-1.796;2023-05-10T03:06:02;13.07;;;2.10;;
78410;SDS011;67706;51.074;-1.796;2023-05-10T03:08:29;12.05;;;2.47;;
78410;SDS011;67706;51.074;-1.796;2023-05-10T03:11:00;9.13;;;2.15;;
78410;SDS011;67706;51.074;-1.796;2023-05-10T03:13:43;8.60;;;2.25;;
78410;SDS011;67706;51.074;-1.796;2023-05-10T03:16:15;8.75;;;2.10;;
78410;SDS011;67706;51.074;-1.796;2023-05-10T03:18:50;9.48;;;2.20;;
78410;SDS011;67706;51.074;-1.796;2023-05-10T03:21:23;8.68;;;1.92;;
78410;SDS011;67706;51.074;-1.796;2023-05-10T03:23:59;10.10;;;2.17;;
78410;SDS011;67706;51.074;-1.796;2023-05-10T03:26:31;12.27;;;2.30;;
78410;SDS011;67706;51.074;-1.796;2023-05-10T03:29:01;10.20;;;2.60;;
78410;SDS011;67706;51.074;-1.796;2023-05-10T03:31:30;12.52;;;2.60;;
78410;SDS011;67706;51.074;-1.796;2023-05-10T03:33:57;14.23;;;3.50;;
78410;SDS011;67706;51.074;-1.796;2023-05-10T03:36:23;9.75;;;2.25;;
78410;SDS011;67706;51.074;-1.796;2023-05-10T03:38:50;12.13;;;2.65;;
78410;SDS011;67706;51.074;-1.796;2023-05-10T03:41:17;11.38;;;2.30;;
78410;SDS011;67706;51.074;-1.796;2023-05-10T03:43:43;14.57;;;3.25;;
78410;SDS011;67706;51.074;-1.796;2023-05-10T03:46:11;9.93;;;2.00;;
78410;SDS011;67706;51.074;-1.796;2023-05-10T03:48:38;15.48;;;2.65;;
78410;SDS011;67706;51.074;-1.796;2023-05-10T03:51:05;14.13;;;2.95;;
78410;SDS011;67706;51.074;-1.796;2023-05-10T03:53:32;14.07;;;2.58;;
78410;SDS011;67706;51.074;-1.796;2023-05-10T03:55:58;10.05;;;2.60;;
78410;SDS011;67706;51.074;-1.796;2023-05-10T03:58:25;8.95;;;1.80;;
78410;SDS011;67706;51.074;-1.796;2023-05-10T04:00:52;11.70;;;2.88;;
78410;SDS011;67706;51.074;-1.796;2023-05-10T04:03:20;16.02;;;2.15;;
78410;SDS011;67706;51.074;-1.796;2023-05-10T04:05:46;11.75;;;2.38;;
78410;SDS011;67706;51.074;-1.796;2023-05-10T04:08:13;8.93;;;2.30;;
78410;SDS011;67706;51.074;-1.796;2023-05-10T04:10:41;14.18;;;3.28;;
78410;SDS011;67706;51.074;-1.796;2023-05-10T04:13:08;11.45;;;2.33;;
78410;SDS011;67706;51.074;-1.796;2023-05-10T04:15:35;9.48;;;2.10;;
78410;SDS011;67706;51.074;-1.796;2023-05-10T04:18:01;15.68;;;2.83;;
78410;SDS011;67706;51.074;-1.796;2023-05-10T04:20:29;10.25;;;2.40;;
78410;SDS011;67706;51.074;-1.796;2023-05-10T04:22:58;17.10;;;2.63;;
78410;SDS011;67706;51.074;-1.796;2023-05-10T04:25:25;10.38;;;2.38;;
78410;SDS011;67706;51.074;-1.796;2023-05-10T04:27:51;10.65;;;2.58;;
78410;SDS011;67706;51.074;-1.796;2023-05-10T04:30:18;12.27;;;2.63;;
78410;SDS011;67706;51.074;-1.796;2023-05-10T04:32:45;12.85;;;2.50;;
78410;SDS011;67706;51.074;-1.796;2023-05-10T04:35:11;11.02;;;2.28;;
78410;SDS011;67706;51.074;-1.796;2023-05-10T04:37:41;9.38;;;2.25;;
78410;SDS011;67706;51.074;-1.796;2023-05-10T04:40:08;14.85;;;3.55;;
78410;SDS011;67706;51.074;-1.796;2023-05-10T04:42:36;13.75;;;2.65;;
78410;SDS011;67706;51.074;-1.796;2023-05-10T04:45:02;13.20;;;2.85;;
78410;SDS011;67706;51.074;-1.796;2023-05-10T04:47:30;17.25;;;2.53;;
78410;SDS011;67706;51.074;-1.796;2023-05-10T04:49:56;14.75;;;2.53;;
78410;SDS011;67706;51.074;-1.796;2023-05-10T04:52:23;8.95;;;2.50;;
78410;SDS011;67706;51.074;-1.796;2023-05-10T04:54:51;11.82;;;2.72;;
78410;SDS011;67706;51.074;-1.796;2023-05-10T04:57:18;10.75;;;2.40;;
78410;SDS011;67706;51.074;-1.796;2023-05-10T04:59:45;9.68;;;2.47;;
78410;SDS011;67706;51.074;-1.796;2023-05-10T05:02:11;11.18;;;2.78;;
78410;SDS011;67706;51.074;-1.796;2023-05-10T05:04:38;12.60;;;2.90;;
78410;SDS011;67706;51.074;-1.796;2023-05-10T05:07:04;11.45;;;2.85;;
78410;SDS011;67706;51.074;-1.796;2023-05-10T05:09:31;14.38;;;3.42;;
78410;SDS011;67706;51.074;-1.796;2023-05-10T05:11:59;12.77;;;3.25;;
78410;SDS011;67706;51.074;-1.796;2023-05-10T05:14:26;16.42;;;3.17;;
78410;SDS011;67706;51.074;-1.796;2023-05-10T05:16:53;12.95;;;2.17;;
78410;SDS011;67706;51.074;-1.796;2023-05-10T05:19:19;10.02;;;3.08;;
78410;SDS011;67706;51.074;-1.796;2023-05-10T05:21:46;16.40;;;3.10;;
78410;SDS011;67706;51.074;-1.796;2023-05-10T05:24:13;12.88;;;2.75;;
78410;SDS011;67706;51.074;-1.796;2023-05-10T05:26:39;7.68;;;2.50;;
78410;SDS011;67706;51.074;-1.796;2023-05-10T05:29:07;14.70;;;3.33;;
78410;SDS011;67706;51.074;-1.796;2023-05-10T05:31:34;15.38;;;3.17;;
78410;SDS011;67706;51.074;-1.796;2023-05-10T05:34:01;13.35;;;3.85;;
78410;SDS011;67706;51.074;-1.796;2023-05-10T05:36:27;14.60;;;3.78;;
78410;SDS011;67706;51.074;-1.796;2023-05-10T05:38:55;15.00;;;3.03;;
78410;SDS011;67706;51.074;-1.796;2023-05-10T05:41:22;17.02;;;2.88;;
78410;SDS011;67706;51.074;-1.796;2023-05-10T05:43:49;19.48;;;3.67;;
78410;SDS011;67706;51.074;-1.796;2023-05-10T05:46:17;15.65;;;3.75;;
78410;SDS011;67706;51.074;-1.796;2023-05-10T05:48:44;21.67;;;3.78;;
78410;SDS011;67706;51.074;-1.796;2023-05-10T05:51:10;16.55;;;3.88;;
78410;SDS011;67706;51.074;-1.796;2023-05-10T05:53:37;11.77;;;2.85;;
78410;SDS011;67706;51.074;-1.796;2023-05-10T05:56:04;21.27;;;4.03;;
78410;SDS011;67706;51.074;-1.796;2023-05-10T05:58:31;12.60;;;3.65;;
78410;SDS011;67706;51.074;-1.796;2023-05-10T06:00:57;16.33;;;3.42;;
78410;SDS011;67706;51.074;-1.796;2023-05-10T06:03:25;13.68;;;3.20;;
78410;SDS011;67706;51.074;-1.796;2023-05-10T06:05:52;10.77;;;2.95;;
78410;SDS011;67706;51.074;-1.796;2023-05-10T06:08:18;14.48;;;2.85;;
78410;SDS011;67706;51.074;-1.796;2023-05-10T06:10:45;15.00;;;2.75;;
78410;SDS011;67706;51.074;-1.796;2023-05-10T06:13:12;14.25;;;2.35;;
78410;SDS011;67706;51.074;-1.796;2023-05-10T06:15:39;13.75;;;2.85;;
78410;SDS011;67706;51.074;-1.796;2023-05-10T06:18:06;17.35;;;3.80;;
78410;SDS011;67706;51.074;-1.796;2023-05-10T06:20:34;12.98;;;4.00;;
78410;SDS011;67706;51.074;-1.796;2023-05-10T06:23:00;13.85;;;3.03;;
78410;SDS011;67706;51.074;-1.796;2023-05-10T06:25:27;10.00;;;2.88;;
78410;SDS011;67706;51.074;-1.796;2023-05-10T06:27:53;11.98;;;2.53;;
78410;SDS011;67706;51.074;-1.796;2023-05-10T06:30:23;9.55;;;2.00;;
78410;SDS011;67706;51.074;-1.796;2023-05-10T06:32:53;10.00;;;2.70;;
78410;SDS011;67706;51.074;-1.796;2023-05-10T06:35:20;12.23;;;2.38;;
78410;SDS011;67706;51.074;-1.796;2023-05-10T06:37:48;15.70;;;2.60;;
78410;SDS011;67706;51.074;-1.796;2023-05-10T06:40:15;8.95;;;2.08;;
78410;SDS011;67706;51.074;-1.796;2023-05-10T06:42:42;10.77;;;2.08;;
78410;SDS011;67706;51.074;-1.796;2023-05-10T06:45:10;13.82;;;2.20;;
78410;SDS011;67706;51.074;-1.796;2023-05-10T06:47:37;12.60;;;2.00;;
78410;SDS011;67706;51.074;-1.796;2023-05-10T06:50:03;9.35;;;2.13;;
78410;SDS011;67706;51.074;-1.796;2023-05-10T06:52:31;8.57;;;2.03;;
78410;SDS011;67706;51.074;-1.796;2023-05-10T06:54:59;11.35;;;1.90;;
78410;SDS011;67706;51.074;-1.796;2023-05-10T06:57:26;8.93;;;1.58;;
78410;SDS011;67706;51.074;-1.796;2023-05-10T06:59:53;9.05;;;1.90;;
78410;SDS011;67706;51.074;-1.796;2023-05-10T07:02:21;10.95;;;2.08;;
78410;SDS011;67706;51.074;-1.796;2023-05-10T07:04:47;6.22;;;1.55;;
78410;SDS011;67706;51.074;-1.796;2023-05-10T07:07:15;9.10;;;2.05;;
78410;SDS011;67706;51.074;-1.796;2023-05-10T07:09:41;11.68;;;1.88;;
78410;SDS011;67706;51.074;-1.796;2023-05-10T07:12:09;11.00;;;1.75;;
78410;SDS011;67706;51.074;-1.796;2023-05-10T07:14:36;11.90;;;1.85;;
78410;SDS011;67706;51.074;-1.796;2023-05-10T07:17:03;7.90;;;1.52;;
78410;SDS011;67706;51.074;-1.796;2023-05-10T07:19:29;8.77;;;1.85;;
78410;SDS011;67706;51.074;-1.796;2023-05-10T07:21:57;4.90;;;1.58;;
78410;SDS011;67706;51.074;-1.796;2023-05-10T07:24:24;11.57;;;1.30;;
78410;SDS011;67706;51.074;-1.796;2023-05-10T07:26:51;9.77;;;1.45;;
78410;SDS011;67706;51.074;-1.796;2023-05-10T07:29:19;8.73;;;1.50;;
78410;SDS011;67706;51.074;-1.796;2023-05-10T07:31:45;4.75;;;1.00;;
78410;SDS011;67706;51.074;-1.796;2023-05-10T07:34:12;6.53;;;1.08;;
78410;SDS011;67706;51.074;-1.796;2023-05-10T07:36:39;15.55;;;2.13;;
78410;SDS011;67706;51.074;-1.796;2023-05-10T07:39:05;7.10;;;1.63;;
78410;SDS011;67706;51.074;-1.796;2023-05-10T07:41:32;8.02;;;1.50;;
78410;SDS011;67706;51.074;-1.796;2023-05-10T07:43:59;6.68;;;1.23;;
78410;SDS011;67706;51.074;-1.796;2023-05-10T07:46:27;7.88;;;1.50;;
78410;SDS011;67706;51.074;-1.796;2023-05-10T07:48:54;10.35;;;1.52;;
78410;SDS011;67706;51.074;-1.796;2023-05-10T07:51:20;9.85;;;1.85;;
78410;SDS011;67706;51.074;-1.796;2023-05-10T07:53:47;7.57;;;1.42;;
78410;SDS011;67706;51.074;-1.796;2023-05-10T07:56:23;6.00;;;1.30;;
78410;SDS011;67706;51.074;-1.796;2023-05-10T07:58:52;6.40;;;1.42;;
78410;SDS011;67706;51.074;-1.796;2023-05-10T08:01:19;5.95;;;1.27;;
78410;SDS011;67706;51.074;-1.796;2023-05-10T08:03:47;7.85;;;1.77;;
78410;SDS011;67706;51.074;-1.796;2023-05-10T08:06:16;8.20;;;1.38;;
78410;SDS011;67706;51.074;-1.796;2023-05-10T08:08:43;4.65;;;1.50;;
78410;SDS011;67706;51.074;-1.796;2023-05-10T08:11:14;7.55;;;1.42;;
78410;SDS011;67706;51.074;-1.796;2023-05-10T08:13:41;11.35;;;2.10;;
78410;SDS011;67706;51.074;-1.796;2023-05-10T08:16:07;8.43;;;1.30;;
78410;SDS011;67706;51.074;-1.796;2023-05-10T08:18:34;7.80;;;1.38;;
78410;SDS011;67706;51.074;-1.796;2023-05-10T08:21:02;7.35;;;1.13;;
78410;SDS011;67706;51.074;-1.796;2023-05-10T08:23:29;9.57;;;1.30;;
78410;SDS011;67706;51.074;-1.796;2023-05-10T08:25:56;7.30;;;1.15;;
78410;SDS011;67706;51.074;-1.796;2023-05-10T08:28:22;8.57;;;1.48;;
78410;SDS011;67706;51.074;-1.796;2023-05-10T08:30:49;6.07;;;1.15;;
78410;SDS011;67706;51.074;-1.796;2023-05-10T08:33:17;11.40;;;1.50;;
78410;SDS011;67706;51.074;-1.796;2023-05-10T08:35:44;5.07;;;1.20;;
78410;SDS011;67706;51.074;-1.796;2023-05-10T08:38:12;5.65;;;1.17;;
78410;SDS011;67706;51.074;-1.796;2023-05-10T08:40:39;3.75;;;1.00;;
78410;SDS011;67706;51.074;-1.796;2023-05-10T08:43:09;8.07;;;1.38;;
78410;SDS011;67706;51.074;-1.796;2023-05-10T08:45:37;8.80;;;1.27;;
78410;SDS011;67706;51.074;-1.796;2023-05-10T08:48:07;6.85;;;1.05;;
78410;SDS011;67706;51.074;-1.796;2023-05-10T08:50:35;4.10;;;1.10;;
78410;SDS011;67706;51.074;-1.796;2023-05-10T08:53:03;1.83;;;0.90;;
78410;SDS011;67706;51.074;-1.796;2023-05-10T08:55:33;9.80;;;1.15;;
78410;SDS011;67706;51.074;-1.796;2023-05-10T08:58:01;6.90;;;1.10;;
78410;SDS011;67706;51.074;-1.796;2023-05-10T09:00:28;7.07;;;1.10;;
78410;SDS011;67706;51.074;-1.796;2023-05-10T09:02:55;7.25;;;1.00;;
78410;SDS011;67706;51.074;-1.796;2023-05-10T09:05:23;5.18;;;0.90;;
78410;SDS011;67706;51.074;-1.796;2023-05-10T09:07:50;7.20;;;1.40;;
78410;SDS011;67706;51.074;-1.796;2023-05-10T09:10:17;3.53;;;0.82;;
78410;SDS011;67706;51.074;-1.796;2023-05-10T09:12:46;4.18;;;1.00;;
78410;SDS011;67706;51.074;-1.796;2023-05-10T09:15:14;6.28;;;1.23;;
78410;SDS011;67706;51.074;-1.796;2023-05-10T09:17:41;10.15;;;1.60;;
78410;SDS011;67706;51.074;-1.796;2023-05-10T09:20:10;7.28;;;1.40;;
78410;SDS011;67706;51.074;-1.796;2023-05-10T09:22:37;6.25;;;1.13;;
78410;SDS011;67706;51.074;-1.796;2023-05-10T09:25:06;1.58;;;0.70;;
78410;SDS011;67706;51.074;-1.796;2023-05-10T09:27:34;7.63;;;0.80;;
78410;SDS011;67706;51.074;-1.796;2023-05-10T09:30:03;9.45;;;1.45;;
78410;SDS011;67706;51.074;-1.796;2023-05-10T09:32:38;6.00;;;1.33;;
78410;SDS011;67706;51.074;-1.796;2023-05-10T09:35:06;4.03;;;1.23;;
78410;SDS011;67706;51.074;-1.796;2023-05-10T09:37:36;4.47;;;0.93;;
78410;SDS011;67706;51.074;-1.796;2023-05-10T09:40:07;4.78;;;1.23;;
78410;SDS011;67706;51.074;-1.796;2023-05-10T09:42:37;3.03;;;1.00;;
78410;SDS011;67706;51.074;-1.796;2023-05-10T09:45:06;5.50;;;1.30;;
78410;SDS011;67706;51.074;-1.796;2023-05-10T09:47:33;5.78;;;0.93;;
78410;SDS011;67706;51.074;-1.796;2023-05-10T09:50:01;5.10;;;1.20;;
78410;SDS011;67706;51.074;-1.796;2023-05-10T09:52:30;6.35;;;2.30;;
78410;SDS011;67706;51.074;-1.796;2023-05-10T09:54:57;3.75;;;0.90;;
78410;SDS011;67706;51.074;-1.796;2023-05-10T09:57:24;4.85;;;1.23;;
78410;SDS011;67706;51.074;-1.796;2023-05-10T09:59:51;5.32;;;1.10;;
78410;SDS011;67706;51.074;-1.796;2023-05-10T10:02:20;5.75;;;1.10;;
78410;SDS011;67706;51.074;-1.796;2023-05-10T10:04:54;3.97;;;1.20;;
78410;SDS011;67706;51.074;-1.796;2023-05-10T10:07:22;2.75;;;0.90;;
78410;SDS011;67706;51.074;-1.796;2023-05-10T10:09:50;5.05;;;1.17;;
78410;SDS011;67706;51.074;-1.796;2023-05-10T10:12:18;5.53;;;1.02;;
78410;SDS011;67706;51.074;-1.796;2023-05-10T10:14:45;3.08;;;0.90;;
78410;SDS011;67706;51.074;-1.796;2023-05-10T10:17:13;2.72;;;0.93;;
78410;SDS011;67706;51.074;-1.796;2023-05-10T10:19:41;2.72;;;1.20;;
78410;SDS011;67706;51.074;-1.796;2023-05-10T10:22:07;4.15;;;1.20;;
78410;SDS011;67706;51.074;-1.796;2023-05-10T10:24:36;3.92;;;1.35;;
78410;SDS011;67706;51.074;-1.796;2023-05-10T10:27:06;4.57;;;1.40;;
78410;SDS011;67706;51.074;-1.796;2023-05-10T10:29:41;4.90;;;1.27;;
78410;SDS011;67706;51.074;-1.796;2023-05-10T10:32:19;8.43;;;1.25;;
78410;SDS011;67706;51.074;-1.796;2023-05-10T10:34:52;1.70;;;0.93;;
78410;SDS011;67706;51.074;-1.796;2023-05-10T10:37:21;6.35;;;1.60;;
78410;SDS011;67706;51.074;-1.796;2023-05-10T10:39:47;6.03;;;1.02;;
78410;SDS011;67706;51.074;-1.796;2023-05-10T10:42:15;3.10;;;1.08;;
78410;SDS011;67706;51.074;-1.796;2023-05-10T10:45:12;5.28;;;1.20;;
78410;SDS011;67706;51.074;-1.796;2023-05-10T10:47:39;5.38;;;1.30;;
78410;SDS011;67706;51.074;-1.796;2023-05-10T10:50:09;3.55;;;1.23;;
78410;SDS011;67706;51.074;-1.796;2023-05-10T10:52:38;3.90;;;1.27;;
78410;SDS011;67706;51.074;-1.796;2023-05-10T10:55:06;4.40;;;1.17;;
78410;SDS011;67706;51.074;-1.796;2023-05-10T10:57:48;3.80;;;0.75;;
78410;SDS011;67706;51.074;-1.796;2023-05-10T11:00:20;4.15;;;1.17;;
78410;SDS011;67706;51.074;-1.796;2023-05-10T11:02:50;3.80;;;0.95;;
78410;SDS011;67706;51.074;-1.796;2023-05-10T11:11:01;5.80;;;1.02;;
78410;SDS011;67706;51.074;-1.796;2023-05-10T11:13:32;5.65;;;1.00;;
78410;SDS011;67706;51.074;-1.796;2023-05-10T11:16:09;4.72;;;0.85;;
78410;SDS011;67706;51.074;-1.796;2023-05-10T11:18:40;3.45;;;1.00;;
78410;SDS011;67706;51.074;-1.796;2023-05-10T11:21:19;3.53;;;0.50;;
78410;SDS011;67706;51.074;-1.796;2023-05-10T11:23:49;5.75;;;0.88;;
78410;SDS011;67706;51.074;-1.796;2023-05-10T11:26:17;1.77;;;0.95;;
78410;SDS011;67706;51.074;-1.796;2023-05-10T11:28:46;5.63;;;1.00;;
78410;SDS011;67706;51.074;-1.796;2023-05-10T11:31:13;5.18;;;0.98;;
78410;SDS011;67706;51.074;-1.796;2023-05-10T11:33:44;4.53;;;0.85;;
78410;SDS011;67706;51.074;-1.796;2023-05-10T11:36:13;5.43;;;0.88;;
78410;SDS011;67706;51.074;-1.796;2023-05-10T11:38:42;3.95;;;0.70;;
78410;SDS011;67706;51.074;-1.796;2023-05-10T11:41:09;3.72;;;1.02;;
78410;SDS011;67706;51.074;-1.796;2023-05-10T11:43:37;5.45;;;1.00;;
78410;SDS011;67706;51.074;-1.796;2023-05-10T11:46:05;4.47;;;1.30;;
78410;SDS011;67706;51.074;-1.796;2023-05-10T11:48:32;4.30;;;1.00;;
78410;SDS011;67706;51.074;-1.796;2023-05-10T11:51:00;4.18;;;0.88;;
78410;SDS011;67706;51.074;-1.796;2023-05-10T11:53:27;4.72;;;0.65;;
78410;SDS011;67706;51.074;-1.796;2023-05-10T11:55:58;3.53;;;1.00;;
78410;SDS011;67706;51.074;-1.796;2023-05-10T11:58:29;4.70;;;0.70;;
78410;SDS011;67706;51.074;-1.796;2023-05-10T12:00:57;3.97;;;0.95;;
78410;SDS011;67706;51.074;-1.796;2023-05-10T12:03:24;5.07;;;0.68;;
78410;SDS011;67706;51.074;-1.796;2023-05-10T12:05:50;2.83;;;0.80;;
78410;SDS011;67706;51.074;-1.796;2023-05-10T12:08:19;2.03;;;0.70;;
78410;SDS011;67706;51.074;-1.796;2023-05-10T12:10:47;4.60;;;0.68;;
78410;SDS011;67706;51.074;-1.796;2023-05-10T12:13:15;9.65;;;0.93;;
78410;SDS011;67706;51.074;-1.796;2023-05-10T12:15:43;3.00;;;0.63;;
78410;SDS011;67706;51.074;-1.796;2023-05-10T12:18:10;4.30;;;0.85;;
78410;SDS011;67706;51.074;-1.796;2023-05-10T12:20:37;2.20;;;0.60;;
78410;SDS011;67706;51.074;-1.796;2023-05-10T12:23:04;6.18;;;1.38;;
78410;SDS011;67706;51.074;-1.796;2023-05-10T12:25:31;4.78;;;0.75;;
78410;SDS011;67706;51.074;-1.796;2023-05-10T12:27:59;6.68;;;1.27;;
78410;SDS011;67706;51.074;-1.796;2023-05-10T12:30:31;5.18;;;1.20;;
78410;SDS011;67706;51.074;-1.796;2023-05-10T12:32:59;8.07;;;0.85;;
78410;SDS011;67706;51.074;-1.796;2023-05-10T12:35:29;1.95;;;0.80;;
78410;SDS011;67706;51.074;-1.796;2023-05-10T12:37:56;4.82;;;0.73;;
78410;SDS011;67706;51.074;-1.796;2023-05-10T12:40:23;3.15;;;0.80;;
78410;SDS011;67706;51.074;-1.796;2023-05-10T12:42:50;5.40;;;1.10;;
78410;SDS011;67706;51.074;-1.796;2023-05-10T12:45:17;5.13;;;1.08;;
78410;SDS011;67706;51.074;-1.796;2023-05-10T12:47:46;5.65;;;1.10;;
78410;SDS011;67706;51.074;-1.796;2023-05-10T12:50:12;2.53;;;0.80;;
78410;SDS011;67706;51.074;-1.796;2023-05-10T12:52:39;3.53;;;0.70;;
78410;SDS011;67706;51.074;-1.796;2023-05-10T12:55:06;4.15;;;0.45;;
78410;SDS011;67706;51.074;-1.796;2023-05-10T12:57:33;6.93;;;0.98;;
78410;SDS011;67706;51.074;-1.796;2023-05-10T13:00:00;6.22;;;1.08;;
78410;SDS011;67706;51.074;-1.796;2023-05-10T13:02:26;4.50;;;0.90;;
78410;SDS011;67706;51.074;-1.796;2023-05-10T13:04:54;5.05;;;0.82;;
78410;SDS011;67706;51.074;-1.796;2023-05-10T13:07:21;5.72;;;0.75;;
78410;SDS011;67706;51.074;-1.796;2023-05-10T13:09:48;5.20;;;0.93;;
78410;SDS011;67706;51.074;-1.796;2023-05-10T13:12:14;4.18;;;0.75;;
78410;SDS011;67706;51.074;-1.796;2023-05-10T13:14:41;3.47;;;1.20;;
78410;SDS011;67706;51.074;-1.796;2023-05-10T13:17:08;4.78;;;0.70;;
78410;SDS011;67706;51.074;-1.796;2023-05-10T13:19:35;3.65;;;1.00;;
78410;SDS011;67706;51.074;-1.796;2023-05-10T13:22:03;3.75;;;0.68;;
78410;SDS011;67706;51.074;-1.796;2023-05-10T13:24:29;4.68;;;0.93;;
78410;SDS011;67706;51.074;-1.796;2023-05-10T13:26:56;5.03;;;0.55;;
78410;SDS011;67706;51.074;-1.796;2023-05-10T13:29:23;6.45;;;0.77;;
78410;SDS011;67706;51.074;-1.796;2023-05-10T13:31:49;2.92;;;0.68;;
78410;SDS011;67706;51.074;-1.796;2023-05-10T13:34:16;3.20;;;0.57;;
78410;SDS011;67706;51.074;-1.796;2023-05-10T13:36:45;4.93;;;0.70;;
78410;SDS011;67706;51.074;-1.796;2023-05-10T13:39:13;5.65;;;0.80;;
78410;SDS011;67706;51.074;-1.796;2023-05-10T13:41:40;4.47;;;1.13;;
78410;SDS011;67706;51.074;-1.796;2023-05-10T13:44:07;4.05;;;0.70;;
78410;SDS011;67706;51.074;-1.796;2023-05-10T13:46:33;3.72;;;0.90;;
78410;SDS011;67706;51.074;-1.796;2023-05-10T13:49:00;6.10;;;1.17;;
78410;SDS011;67706;51.074;-1.796;2023-05-10T13:51:27;4.57;;;1.05;;
78410;SDS011;67706;51.074;-1.796;2023-05-10T13:53:53;4.88;;;1.30;;
78410;SDS011;67706;51.074;-1.796;2023-05-10T13:56:22;3.38;;;0.80;;
78410;SDS011;67706;51.074;-1.796;2023-05-10T13:58:48;5.85;;;0.95;;
78410;SDS011;67706;51.074;-1.796;2023-05-10T14:01:15;7.07;;;1.30;;
78410;SDS011;67706;51.074;-1.796;2023-05-10T14:03:42;2.53;;;0.70;;
78410;SDS011;67706;51.074;-1.796;2023-05-10T14:06:08;4.40;;;0.88;;
78410;SDS011;67706;51.074;-1.796;2023-05-10T14:08:35;2.33;;;0.73;;
78410;SDS011;67706;51.074;-1.796;2023-05-10T14:11:02;3.35;;;0.70;;
78410;SDS011;67706;51.074;-1.796;2023-05-10T14:13:30;3.53;;;0.50;;
78410;SDS011;67706;51.074;-1.796;2023-05-10T14:15:57;3.50;;;0.40;;
78410;SDS011;67706;51.074;-1.796;2023-05-10T14:18:25;4.10;;;0.40;;
78410;SDS011;67706;51.074;-1.796;2023-05-10T14:20:52;1.73;;;0.30;;
78410;SDS011;67706;51.074;-1.796;2023-05-10T14:23:19;1.38;;;0.30;;
78410;SDS011;67706;51.074;-1.796;2023-05-10T14:25:49;4.03;;;0.43;;
78410;SDS011;67706;51.074;-1.796;2023-05-10T14:28:15;4.05;;;0.50;;
78410;SDS011;67706;51.074;-1.796;2023-05-10T14:30:44;1.85;;;0.40;;
78410;SDS011;67706;51.074;-1.796;2023-05-10T14:33:11;3.03;;;0.40;;
78410;SDS011;67706;51.074;-1.796;2023-05-10T14:35:38;0.50;;;0.30;;
78410;SDS011;67706;51.074;-1.796;2023-05-10T14:38:05;3.40;;;0.32;;
78410;SDS011;67706;51.074;-1.796;2023-05-10T14:40:31;1.65;;;0.40;;